Flight Track Log - Related Links

Times and Time Zones

All times are in EDT time to prevent confusion due to time zone crossing. See the AMF1324 flight status page for this flight to view local times or setup timezone preferences in your user account.


Time Position Orientation Groundspeed Altitude Reporting Facility
EDT Latitude Longitude Course Direction KTS MPH feet Rate Location/Type
Tue 08:04:45 AM 42.1708 -75.9656 298° West 176 203 5,400  Level Cleveland Center
Tue 08:05:47 AM 42.1953 -76.0272 298° West 199 229 8,300 2,829 Climbing Cleveland Center
Tue 08:06:48 AM 42.2264 -76.0953 302° West 183 211 11,200 1,854 Climbing Cleveland Center
Tue 08:07:50 AM 42.2508 -76.1614 297° West 190 219 12,100 435 Climbing Cleveland Center
Tue 08:08:52 AM 42.2761 -76.2428 293° West 230 265 12,100  Level Cleveland Center
Tue 08:09:54 AM 42.3047 -76.3225 296° West 234 269 12,100  Level Cleveland Center
Tue 08:10:56 AM 42.3308 -76.4006 294° West 235 270 12,100  Level Cleveland Center
Tue 08:11:58 AM 42.3653 -76.4953 296° West 235 270 12,100  Level Cleveland Center
Tue 08:13:00 AM 42.3936 -76.5750 296° West 235 270 12,100  Level Cleveland Center
Tue 08:14:02 AM 42.4231 -76.6558 296° West 236 272 12,100  Level Cleveland Center
Tue 08:15:04 AM 42.4522 -76.7353 296° West 238 274 12,100  Level Cleveland Center
Tue 08:16:06 AM 42.4814 -76.8156 296° West 238 274 12,100  Level Cleveland Center
Tue 08:17:08 AM 42.5117 -76.8947 297° West 238 274 12,100 -48 Level Cleveland Center
Tue 08:18:10 AM 42.5478 -76.9892 297° West 238 274 12,000  Descending Cleveland Center
Tue 08:19:12 AM 42.5764 -77.0697 296° West 238 274 12,100  Climbing Cleveland Center
Tue 08:20:14 AM 42.6042 -77.1517 295° West 239 275 12,000  Descending Cleveland Center
Tue 08:21:06 AM 42.6319 -77.2319 295° West 236 272 12,100 97 Climbing Cleveland Center
Tue 08:21:16 AM 42.6328 -77.2311 36° Northeast 238 274 12,100 -140 Level Cleveland Center
Tue 08:21:49 AM 42.6544 -77.2836 299° West 236 272 12,000  Descending Cleveland Center
Tue 08:22:18 AM 42.6642 -77.3078 299° West 237 273 12,100 100 Climbing Cleveland Center
Tue 08:22:49 AM 42.6858 -77.3636 298° West 235 270 12,100  Level Cleveland Center
Tue 08:23:20 AM 42.7008 -77.4017 298° West 237 273 12,100  Level Cleveland Center
Tue 08:23:44 AM 42.7139 -77.4342 299° West 234 269 12,100  Level Cleveland Center
Tue 08:24:22 AM 42.7333 -77.4781 301° West 237 273 12,100  Level Cleveland Center
Tue 08:24:44 AM 42.7456 -77.5114 297° West 233 268 12,100 -484 Level Cleveland Center
Tue 08:25:24 AM 42.7658 -77.5539 303° West 236 272 11,600 -885 Descending Cleveland Center
Tue 08:25:45 AM 42.7811 -77.5897 300° West 247 284 11,200 -871 Descending Cleveland Center
Tue 08:26:26 AM 42.8000 -77.6367 299° West 252 290 10,700 -984 Descending Cleveland Center
Tue 08:26:46 AM 42.8172 -77.6772 300° West 260 299 10,200 -1,065 Descending Cleveland Center
Tue 08:27:28 AM 42.8308 -77.7222 292° West 253 291 9,600 -1,100 Descending Cleveland Center
Tue 08:27:46 AM 42.8361 -77.7686 279° West 248 285 9,100 -1,355 Descending Cleveland Center
Tue 08:28:30 AM 42.8403 -77.8372 275° West 262 302 8,200 -1,189 Descending Cleveland Center
Tue 08:29:32 AM 42.8542 -77.9369 281° West 261 300 7,000 -1,016 Descending Cleveland Center
Tue 08:30:34 AM 42.8631 -78.0383 277° West 260 299 6,100 -1,113 Descending Cleveland Center
Tue 08:31:36 AM 42.8683 -78.1419 274° West 262 302 4,700 -1,016 Descending Cleveland Center
Tue 08:32:38 AM 42.8792 -78.2353 279° West 262 302 4,000 -339 Descending Cleveland Center
Tue 08:33:40 AM 42.8889 -78.3361 278° West 259 298 4,000  Level Cleveland Center
Tue 08:34:41 AM 42.8769 -78.4283 260° West 248 285 4,000  Level Cleveland Center
Tue 08:35:43 AM 42.8494 -78.5131 246° West 236 272 4,000 -48 Level Cleveland Center
Tue 08:36:45 AM 42.8314 -78.5925 253° West 211 243 3,900 -290 Descending Cleveland Center
Tue 08:37:47 AM 42.8228 -78.6697 261° West 202 232 3,400 -677 Descending Cleveland Center
Tue 08:38:49 AM 42.8547 -78.7236 309° West 182 209 2,500 -821 Descending Cleveland Center
Tue 08:39:44 AM 42.8833 -78.7500 326° Northwest 150 173 1,800 -787 Descending Buffalo TRACON
Tue 08:40:51 AM 42.9167 -78.7500 360° North 129 148 900 -806 Descending Buffalo TRACON
Tue 08:42:00 AM 42.9333 -78.7167 270° West  Level FlightAware Approximate

Login

Don't have an account? Register now (free) for customized features, flight alerts, and more!